Weather at Rivoli Avro Airfield

Public forecast

Using degrees Celsius for public forecast. Weather courtesy of forecast.io.

Closest aviation weather report (METAR) to Rivoli Avro Airfield

Closest report is Udine-Rivolto Air Base, 15.3 nm (28.4 km) S.

2024/05/29 10:55 (retrieved 47 minutes ago)

LIPI 291055Z 05003KT 9999 FEW093 24/15 Q1014 RMK BKN BKN200 VIS MIN 9999 WIND THR06 13002KT WIND THR24 12003KT BLU

Closest aviation forecast (TAF) to Rivoli Avro Airfield

Closest forecast is Trieste–Friuli Venezia Giulia Airport, 29.5 nm (54.7 km) SE.

2024/05/29 06:21 (retrieved 5 hours ago)

TAF LIPQ 290500Z 2906/3006 VRB05KT 9999 FEW060 TEMPO 3003/3006 4000 TSRA BKN014